KIWD

Gogebic-Iron County Airport

Ironwood, Michigan, USA
METAR KIWD 110356Z AUTO 23010KT 7SM CLR M08/M09 A2992 RMK AO2 SLP153 T10831094 FZRANO PNO $
Observed Flight Rules
Dec-11 @ 03:56 UTC (39 minutes ago) Visual Flight Rules
Wind Visibility Clouds
230° at 10 knots 7 miles
  • Clear skies
Temperatures Readings
Current -8°C / 18°F
Dewpoint -9°C / 16°F
Humidity 93%
Altimeter 29.92" Hg
Pressure 1015.3 hPa
Elevation 375
METAR KIWD 110356Z AUTO 23010KT 7SM CLR M08/M09 A2992 RMK AO2 SLP153 T10831094 FZRANO PNO $
Observed Flight Rules
Dec-11 @ 03:56 UTC
(39 minutes ago)
VFR
Wind Visibility
230° at 10 knots 7 miles
Clouds
  • Clear skies
Temperature Dewpoint
-8°C / 18°F -9°C / 16°F
Humidity Altimeter Pressure
93% 29.92" Hg 1015.3 hPa